Time;durP1;ratioP1;P1;durP2;ratioP2;P2;SDS_P1;SDS_P2;PMS_P1;PMS_P2;Temp;Humidity;BMP_temperature;BMP_pressure;BME280_temperature;BME280_humidity;BME280_pressure;Samples;Min_cycle;Max_cycle;Signal;HPM_P1;HPM_P2
2023/07/21 00:01:08;;;;;;;18.90;17.60;;;;;;;21.67;51.86;99894.56;4759530;29;96742;-80
2023/07/21 00:03:35;;;;;;;17.30;16.17;;;;;;;21.67;52.00;99894.56;4764542;29;98748;-80
2023/07/21 00:06:02;;;;;;;17.73;16.63;;;;;;;21.66;51.88;99896.38;4767686;29;99027;-80
2023/07/21 00:08:29;;;;;;;17.70;16.60;;;;;;;21.66;52.00;99888.38;4772105;29;96608;-80
2023/07/21 00:10:58;;;;;;;18.55;17.23;;;;;;;21.66;52.03;99896.38;4768461;29;98585;-79
2023/07/21 00:13:34;;;;;;;17.58;16.48;;;;;;;21.61;52.22;99892.44;4764844;29;98988;-80
2023/07/21 00:16:03;;;;;;;17.33;16.17;;;;;;;21.58;52.33;99898.03;4769068;29;98840;-79
2023/07/21 00:18:30;;;;;;;17.45;16.15;;;;;;;21.56;52.44;99898.19;4764362;29;96764;-79
2023/07/21 00:20:55;;;;;;;18.42;17.10;;;;;;;21.56;52.37;99900.00;4770744;29;96982;-79
2023/07/21 00:23:22;;;;;;;18.13;16.85;;;;;;;21.51;52.49;99900.41;4778339;29;98723;-79
2023/07/21 00:25:48;;;;;;;17.80;16.67;;;;;;;21.50;52.48;99897.84;4774238;29;98723;-80
2023/07/21 00:28:14;;;;;;;17.83;16.65;;;;;;;21.51;52.42;99894.22;4770432;29;96808;-80
2023/07/21 00:30:40;;;;;;;18.10;17.00;;;;;;;21.47;52.49;99890.97;4766744;29;97281;-79
2023/07/21 00:33:05;;;;;;;18.02;16.92;;;;;;;21.47;52.49;99898.97;4766901;29;98662;-80
2023/07/21 00:35:33;;;;;;;18.40;17.30;;;;;;;21.46;52.55;99890.09;4766177;29;98317;-80
2023/07/21 00:38:01;;;;;;;17.65;16.55;;;;;;;21.42;52.65;99886.03;4765449;29;96709;-80
2023/07/21 00:40:27;;;;;;;17.50;16.40;;;;;;;21.42;52.75;99894.03;4749798;29;96855;-80
2023/07/21 00:42:54;;;;;;;18.20;17.10;;;;;;;21.43;52.82;99884.19;4772502;29;98756;-79
2023/07/21 00:45:19;;;;;;;17.10;16.10;;;;;;;21.43;52.97;99892.19;4766291;29;98559;-80
2023/07/21 00:47:45;;;;;;;16.58;15.57;;;;;;;21.42;52.72;99890.53;4766484;29;97331;-80
2023/07/21 00:50:14;;;;;;;16.80;15.80;;;;;;;21.37;52.93;99888.22;4759963;29;96845;-79
2023/07/21 00:52:40;;;;;;;17.83;16.73;;;;;;;21.39;52.85;99891.63;4767844;29;98159;-79
2023/07/21 00:55:06;;;;;;;18.67;17.48;;;;;;;21.38;53.13;99884.59;4751343;29;100075;-80
2023/07/21 00:57:33;;;;;;;17.40;16.30;;;;;;;21.38;53.07;99884.59;4766306;29;96725;-80
2023/07/21 00:59:58;;;;;;;17.55;16.17;;;;;;;21.34;52.98;99884.94;4769237;29;96836;-80
2023/07/21 01:02:24;;;;;;;17.23;16.13;;;;;;;21.35;52.92;99882.16;4772153;29;98680;-80
2023/07/21 01:04:51;;;;;;;17.67;16.50;;;;;;;21.31;53.35;99875.38;4766110;29;98579;-80
2023/07/21 01:07:18;;;;;;;17.13;16.02;;;;;;;21.30;53.30;99872.84;4754236;29;96871;-80
2023/07/21 01:09:45;;;;;;;17.00;16.00;;;;;;;21.25;53.42;99874.09;4758647;29;96865;-80
2023/07/21 01:12:11;;;;;;;16.77;15.77;;;;;;;21.20;53.60;99870.94;4734585;29;100486;-80
2023/07/21 01:14:38;;;;;;;16.80;15.70;;;;;;;21.20;53.67;99878.13;4748550;29;100126;-80
2023/07/21 01:17:06;;;;;;;18.60;17.05;;;;;;;21.17;53.73;99873.03;4748565;29;96849;-79
2023/07/21 01:19:32;;;;;;;17.20;16.00;;;;;;;21.14;53.71;99874.16;4752198;29;96920;-79
2023/07/21 01:22:01;;;;;;;17.95;16.77;;;;;;;21.13;53.73;99859.13;4770626;29;98954;-79
2023/07/21 01:24:46;;;;;;;;;;;;;;;21.07;53.97;99866.81;4772334;29;97325;-79
2023/07/21 01:27:13;;;;;;;16.77;15.75;;;;;;;21.06;54.00;99871.31;4739799;29;97434;-79
2023/07/21 01:29:41;;;;;;;18.08;16.77;;;;;;;21.03;54.26;99866.22;4750991;29;97017;-79
2023/07/21 01:32:09;;;;;;;17.70;16.30;;;;;;;20.97;54.21;99862.25;4738972;29;98970;-79
2023/07/21 01:34:35;;;;;;;18.17;17.08;;;;;;;20.97;54.20;99866.72;4746870;29;98453;-79
2023/07/21 01:37:01;;;;;;;16.30;15.35;;;;;;;20.94;53.89;99867.00;4750888;29;96839;-79
2023/07/21 01:39:31;;;;;;;17.58;16.48;;;;;;;20.94;54.20;99859.84;4749743;29;96986;-79
2023/07/21 01:42:00;;;;;;;17.35;16.20;;;;;;;20.98;53.91;99876.44;4765114;29;99124;-79
2023/07/21 01:44:26;;;;;;;18.05;16.73;;;;;;;20.98;54.23;99871.09;4766068;29;98405;-79
2023/07/21 01:46:54;;;;;;;18.25;16.98;;;;;;;20.98;54.10;99871.09;4765460;29;96775;-79
2023/07/21 01:49:20;;;;;;;17.23;16.13;;;;;;;20.98;54.10;99865.78;4765590;29;97313;-79
2023/07/21 01:51:47;;;;;;;17.00;15.90;;;;;;;20.98;54.22;99869.28;4756980;29;98557;-79
2023/07/21 01:54:44;;;;;;;18.02;16.92;;;;;;;20.95;53.98;99869.53;4752331;29;97398;-79
2023/07/21 01:57:14;;;;;;;17.40;16.30;;;;;;;20.94;53.83;99867.84;4742454;29;97227;-79
2023/07/21 01:59:43;;;;;;;17.47;16.40;;;;;;;20.93;53.99;99874.16;4737607;29;97768;-79
2023/07/21 02:02:10;;;;;;;17.70;16.40;;;;;;;20.85;54.25;99870.44;4748833;29;97465;-81
2023/07/21 02:04:36;;;;;;;17.85;16.10;;;;;;;20.81;54.48;99867.19;4749356;29;98553;-79
2023/07/21 02:07:02;;;;;;;17.38;16.27;;;;;;;20.72;54.53;99866.13;4734095;29;96964;-79
2023/07/21 02:09:27;;;;;;;18.08;16.83;;;;;;;20.76;54.75;99866.72;4765600;29;96845;-81
2023/07/21 02:11:53;;;;;;;17.02;15.93;;;;;;;20.75;54.66;99867.72;4764734;29;98636;-79
2023/07/21 02:14:35;;;;;;;18.55;17.35;;;;;;;20.73;54.47;99866.97;4748891;29;99895;-78
2023/07/21 02:17:01;;;;;;;17.48;16.45;;;;;;;20.68;54.58;99864.72;4733438;29;96916;-79
2023/07/21 02:19:26;;;;;;;18.20;16.83;;;;;;;20.66;54.64;99864.00;4748382;29;96987;-79
2023/07/21 02:21:52;;;;;;;16.60;15.50;;;;;;;20.69;54.73;99863.72;4764381;29;98677;-79
2023/07/21 02:24:17;;;;;;;17.70;16.60;;;;;;;20.68;54.68;99870.03;4774008;29;97677;-79
2023/07/21 02:26:43;;;;;;;18.40;17.10;;;;;;;20.67;54.65;99870.16;4750386;29;96821;-79
2023/07/21 02:29:10;;;;;;;17.52;16.17;;;;;;;20.66;54.73;99873.81;4748945;29;97225;-79
2023/07/21 02:31:37;;;;;;;18.48;17.27;;;;;;;20.67;54.81;99873.66;4748078;29;100836;-81
2023/07/21 02:34:05;;;;;;;17.80;16.60;;;;;;;20.60;54.93;99875.16;4765072;29;98695;-79
2023/07/21 02:36:30;;;;;;;17.60;16.50;;;;;;;20.61;54.79;99871.50;4745450;29;97676;-79
2023/07/21 02:38:56;;;;;;;18.42;17.10;;;;;;;20.62;54.94;99885.69;4753423;29;96801;-79
2023/07/21 02:41:22;;;;;;;17.92;16.63;;;;;;;20.59;55.04;99878.78;4747512;29;98780;-79
2023/07/21 02:43:47;;;;;;;18.15;16.98;;;;;;;20.61;54.89;99881.34;4772297;29;98297;-79
2023/07/21 02:46:14;;;;;;;18.70;17.40;;;;;;;20.58;55.01;99877.94;4744888;29;96918;-79
2023/07/21 02:48:40;;;;;;;18.42;17.23;;;;;;;20.60;54.79;99880.50;4757923;29;97368;-79
2023/07/21 02:51:05;;;;;;;19.27;17.73;;;;;;;20.57;54.89;99883.41;4766812;29;98768;-79
2023/07/21 02:53:39;;;;;;;17.50;16.45;;;;;;;20.57;54.93;99881.59;4747938;29;100280;-81
2023/07/21 02:56:05;;;;;;;17.60;16.50;;;;;;;20.52;54.98;99889.13;4753658;29;97780;-79
2023/07/21 02:58:43;;;;;;;18.55;16.92;;;;;;;20.53;54.95;99893.47;4735017;29;96888;-79
2023/07/21 03:01:09;;;;;;;17.88;16.80;;;;;;;20.52;55.07;99886.44;4763728;29;97913;-81
2023/07/21 03:03:36;;;;;;;17.90;16.80;;;;;;;20.52;55.15;99889.13;4749421;29;100412;-79
2023/07/21 03:06:09;;;;;;;19.33;17.65;;;;;;;20.50;55.11;99888.34;4737761;29;97134;-79
2023/07/21 03:08:35;;;;;;;18.25;17.05;;;;;;;20.50;55.15;99887.50;4763598;29;97250;-79
2023/07/21 03:11:07;;;;;;;18.10;17.00;;;;;;;20.49;55.13;99893.81;4741648;29;98994;-79
2023/07/21 03:13:37;;;;;;;17.48;16.48;;;;;;;20.48;55.25;99894.81;4763305;29;99483;-79
2023/07/21 03:16:04;;;;;;;18.15;17.05;;;;;;;20.46;55.06;99897.59;4756372;29;96856;-79
2023/07/21 03:18:32;;;;;;;18.95;17.42;;;;;;;20.47;55.04;99896.59;4747825;29;96919;-81
2023/07/21 03:21:10;;;;;;;18.23;17.02;;;;;;;20.47;55.16;99895.75;4748952;29;100879;-78
2023/07/21 03:23:36;;;;;;;18.45;17.35;;;;;;;20.47;54.95;99885.94;4757495;29;100294;-79
2023/07/21 03:26:03;;;;;;;18.73;17.00;;;;;;;20.44;55.29;99896.03;4751692;29;97190;-78
2023/07/21 03:28:33;;;;;;;18.90;17.58;;;;;;;20.38;55.53;99889.38;4748258;29;96995;-78
2023/07/21 03:30:59;;;;;;;17.15;16.15;;;;;;;20.37;55.42;99898.34;4751908;29;100460;-79
2023/07/21 03:33:31;;;;;;;17.73;16.63;;;;;;;20.43;55.04;99894.34;4754166;29;100595;-78
2023/07/21 03:36:11;;;;;;;17.85;16.65;;;;;;;20.40;55.11;99887.44;4747418;29;96959;-80
2023/07/21 03:38:37;;;;;;;17.52;16.33;;;;;;;20.40;55.20;99890.09;4756623;29;96881;-78
2023/07/21 03:41:05;;;;;;;17.63;16.42;;;;;;;20.45;55.24;99892.38;4756318;29;100509;-78
2023/07/21 03:43:33;;;;;;;18.38;16.85;;;;;;;20.44;55.25;99888.03;4747723;29;100385;-78
2023/07/21 03:45:59;;;;;;;18.08;16.75;;;;;;;20.42;55.32;99893.50;4763835;29;96727;-79
2023/07/21 03:48:29;;;;;;;16.98;15.38;;;;;;;20.42;55.38;99884.63;4748350;29;97005;-79
2023/07/21 03:51:03;;;;;;;16.38;15.35;;;;;;;20.46;55.22;99889.59;4746134;29;100431;-80
2023/07/21 03:53:31;;;;;;;16.85;15.88;;;;;;;20.49;55.25;99881.34;4762930;29;100635;-79
2023/07/21 03:55:57;;;;;;;16.40;15.50;;;;;;;20.47;55.28;99887.78;4762894;29;97146;-78
2023/07/21 03:58:23;;;;;;;17.42;16.33;;;;;;;20.52;55.01;99886.44;4748037;29;97097;-79
2023/07/21 04:00:48;;;;;;;18.73;17.35;;;;;;;20.54;55.26;99883.66;4751257;29;100397;-78
2023/07/21 04:03:15;;;;;;;17.63;16.40;;;;;;;20.57;55.15;99892.25;4747525;29;98743;-80
2023/07/21 04:05:41;;;;;;;17.60;16.40;;;;;;;20.63;54.87;99896.25;4768087;29;96872;-78
2023/07/21 04:08:06;;;;;;;17.73;16.63;;;;;;;20.64;55.05;99894.41;4764708;29;96909;-79
2023/07/21 04:10:32;;;;;;;18.88;17.48;;;;;;;20.67;54.85;99892.34;4762411;29;98870;-79
2023/07/21 04:12:58;;;;;;;19.42;17.60;;;;;;;20.67;55.02;99896.81;4762425;29;100073;-79
2023/07/21 04:15:25;;;;;;;17.40;16.05;;;;;;;20.76;54.60;99896.91;4763770;29;96839;-79
2023/07/21 04:17:51;;;;;;;19.65;18.15;;;;;;;20.91;54.36;99897.44;4774931;29;97196;-79
2023/07/21 04:20:17;;;;;;;18.10;16.98;;;;;;;20.99;54.29;99896.81;4774650;29;98877;-79
2023/07/21 04:22:43;;;;;;;18.10;16.85;;;;;;;21.09;53.70;99895.06;4763565;29;97340;-78
2023/07/21 04:25:10;;;;;;;18.38;17.00;;;;;;;21.25;53.20;99892.75;4763616;29;98045;-78
2023/07/21 04:27:36;;;;;;;18.17;16.42;;;;;;;21.43;52.95;99897.53;4762497;29;97354;-78
2023/07/21 04:30:02;;;;;;;17.95;16.55;;;;;;;21.63;52.55;99895.81;4749368;29;100792;-78
2023/07/21 04:32:30;;;;;;;18.42;17.13;;;;;;;21.73;52.40;99893.19;4750484;29;100529;-80
2023/07/21 04:34:59;;;;;;;17.73;16.48;;;;;;;21.89;51.58;99893.53;4746705;29;96819;-81
2023/07/21 04:37:25;;;;;;;19.83;18.17;;;;;;;22.04;51.41;99904.69;4760209;29;97082;-81
2023/07/21 04:39:54;;;;;;;18.05;16.85;;;;;;;22.15;50.92;99894.75;4762501;29;97520;-80
2023/07/21 04:42:19;;;;;;;17.27;16.05;;;;;;;22.28;50.22;99896.34;4767438;29;97121;-80
2023/07/21 04:44:48;;;;;;;18.63;17.17;;;;;;;22.40;50.21;99895.28;4746413;29;97408;-80
2023/07/21 04:47:13;;;;;;;18.52;17.02;;;;;;;22.51;49.84;99897.78;4752836;29;97293;-80
2023/07/21 04:49:55;;;;;;;17.45;16.23;;;;;;;22.52;49.89;99893.31;4741319;29;100840;-80
2023/07/21 04:52:21;;;;;;;17.55;16.30;;;;;;;22.78;49.19;99896.28;4743952;29;100277;-80
2023/07/21 04:54:47;;;;;;;19.08;17.67;;;;;;;23.00;48.80;99896.00;4763158;29;96602;-80
2023/07/21 04:57:13;;;;;;;19.50;18.10;;;;;;;23.20;48.65;99895.97;4746618;29;97053;-80
2023/07/21 04:59:39;;;;;;;19.05;17.90;;;;;;;23.35;48.04;99891.84;4763164;29;98667;-80
2023/07/21 05:02:05;;;;;;;17.20;16.10;;;;;;;23.55;47.04;99887.28;4746522;29;100398;-80
2023/07/21 05:04:31;;;;;;;17.95;16.50;;;;;;;23.70;46.92;99885.00;4748346;29;96838;-81
2023/07/21 05:06:57;;;;;;;18.27;17.13;;;;;;;23.92;46.22;99883.81;4745177;29;96878;-80
2023/07/21 05:09:23;;;;;;;18.08;16.77;;;;;;;24.02;45.61;99886.44;4752901;29;99976;-80
2023/07/21 05:11:49;;;;;;;17.67;16.58;;;;;;;24.16;45.60;99885.94;4768032;29;100295;-81
2023/07/21 05:14:32;;;;;;;17.17;16.13;;;;;;;24.32;45.28;99885.28;4752347;29;97244;-82
2023/07/21 05:17:27;;;;;;;18.00;16.58;;;;;;;24.27;44.61;99884.88;4757598;29;96856;-80
2023/07/21 05:20:19;;;;;;;17.90;16.80;;;;;;;24.10;44.73;99886.53;4748311;29;100782;-80
2023/07/21 05:22:57;;;;;;;18.75;17.50;;;;;;;24.00;45.11;99883.91;4750414;29;100141;-80
2023/07/21 05:25:41;;;;;;;17.38;16.20;;;;;;;24.13;44.71;99888.91;4736782;29;96851;-80
2023/07/21 05:28:06;;;;;;;17.40;16.17;;;;;;;24.12;44.33;99880.03;4768873;29;96801;-80
2023/07/21 05:30:36;;;;;;;18.02;16.70;;;;;;;24.29;43.74;99880.19;4764636;29;100623;-71
2023/07/21 05:33:02;;;;;;;18.30;17.10;;;;;;;24.50;43.71;99888.84;4752358;29;98480;-71
2023/07/21 05:35:29;;;;;;;18.33;17.02;;;;;;;24.66;43.43;99882.78;4771731;29;96691;-71
2023/07/21 05:38:01;;;;;;;16.88;15.57;;;;;;;24.88;43.05;99881.47;4774522;29;96941;-71
2023/07/21 05:40:27;;;;;;;17.88;16.25;;;;;;;25.15;42.05;99887.75;4772712;29;100202;-71
2023/07/21 05:42:53;;;;;;;18.88;17.15;;;;;;;25.51;41.24;99883.97;4749327;29;100281;-71
2023/07/21 05:45:18;;;;;;;17.48;15.88;;;;;;;25.63;40.97;99887.25;4765521;29;96736;-71
2023/07/21 05:47:46;;;;;;;17.58;16.38;;;;;;;26.08;39.86;99885.28;4762787;29;97782;-71
2023/07/21 05:50:11;;;;;;;18.00;16.58;;;;;;;26.55;38.69;99892.81;4746724;29;100149;-76
2023/07/21 05:52:40;;;;;;;17.40;15.93;;;;;;;27.10;37.60;99884.09;4745727;29;98669;-76
2023/07/21 05:55:16;;;;;;;17.05;16.05;;;;;;;27.22;37.05;99879.22;4748101;29;96776;-76
2023/07/21 05:57:42;;;;;;;18.38;17.08;;;;;;;28.01;36.03;99880.19;4754443;29;96909;-76
2023/07/21 06:00:14;;;;;;;17.55;16.45;;;;;;;28.88;34.95;99880.84;4743877;29;100433;-76
2023/07/21 06:02:44;;;;;;;17.42;16.25;;;;;;;30.16;32.72;99879.03;4753321;29;100037;-76
2023/07/21 06:05:12;;;;;;;18.65;17.05;;;;;;;31.33;31.18;99871.47;4752233;29;97366;-76
2023/07/21 06:08:07;;;;;;;17.20;16.13;;;;;;;32.61;29.15;99880.03;4771638;29;96831;-76
2023/07/21 06:10:59;;;;;;;17.70;16.52;;;;;;;33.86;27.32;99882.03;4763401;29;101040;-76
2023/07/21 06:13:38;;;;;;;;;;;;;;;34.39;26.26;99887.31;4758201;29;101785;-76
2023/07/21 06:16:33;;;;;;;17.90;16.42;;;;;;;34.90;26.04;99883.63;4763212;29;97082;-76
2023/07/21 06:19:00;;;;;;;18.13;16.52;;;;;;;35.62;24.83;99880.50;4747610;29;96935;-76
2023/07/21 06:21:26;;;;;;;17.08;16.08;;;;;;;34.02;25.97;99879.69;4749081;29;97640;-76
2023/07/21 06:23:53;;;;;;;18.17;16.52;;;;;;;35.07;25.24;99876.59;4759945;29;99904;-76
2023/07/21 06:26:20;;;;;;;17.50;16.50;;;;;;;36.13;24.10;99874.66;4748122;29;96757;-76
2023/07/21 06:28:46;;;;;;;19.48;17.90;;;;;;;36.58;23.37;99870.69;4759247;29;97433;-76
2023/07/21 06:31:15;;;;;;;18.48;17.27;;;;;;;37.69;22.94;99876.38;4764199;29;98942;-76
2023/07/21 06:34:07;;;;;;;17.65;16.45;;;;;;;37.97;22.54;99871.00;4742887;29;100940;-77
2023/07/21 06:36:38;;;;;;;17.77;16.63;;;;;;;38.56;21.78;99868.00;4761257;29;97028;-76
2023/07/21 06:39:17;;;;;;;18.80;17.33;;;;;;;39.18;22.15;99864.38;4745986;29;97428;-68
2023/07/21 06:42:07;;;;;;;17.75;16.45;;;;;;;39.07;21.06;99873.53;4728890;29;98405;-68
2023/07/21 06:44:52;;;;;;;18.73;17.35;;;;;;;37.22;22.75;99865.47;4765478;29;97125;-68
2023/07/21 06:47:38;;;;;;;18.48;17.08;;;;;;;38.38;21.44;99868.22;4760103;29;96939;-68
2023/07/21 06:50:19;;;;;;;16.85;15.68;;;;;;;37.11;22.71;99854.25;4764779;29;97196;-68
2023/07/21 06:52:51;;;;;;;16.98;15.95;;;;;;;36.75;22.72;99860.75;4767403;29;100980;-68
2023/07/21 06:55:19;;;;;;;17.52;16.42;;;;;;;37.73;22.53;99855.66;4744950;29;100463;-68
2023/07/21 06:57:45;;;;;;;16.75;15.82;;;;;;;37.40;21.69;99857.09;4762025;29;97229;-69
2023/07/21 07:00:13;;;;;;;16.17;15.18;;;;;;;35.65;22.91;99863.66;4762940;29;96987;-69
2023/07/21 07:02:39;;;;;;;17.10;16.10;;;;;;;34.74;23.63;99857.75;4762519;29;97493;-69
2023/07/21 07:05:04;;;;;;;17.10;15.95;;;;;;;36.38;22.84;99854.56;4761891;29;98800;-69
2023/07/21 07:07:30;;;;;;;16.90;15.90;;;;;;;37.42;21.57;99851.41;4762078;29;96755;-69
2023/07/21 07:09:55;;;;;;;17.90;16.80;;;;;;;36.81;21.38;99856.25;4760970;29;96951;-69
2023/07/21 07:12:21;;;;;;;18.05;16.80;;;;;;;35.60;22.89;99856.16;4745519;29;100411;-69
2023/07/21 07:14:46;;;;;;;16.95;16.05;;;;;;;34.91;23.27;99850.69;4762111;29;98050;-69
2023/07/21 07:17:13;;;;;;;16.58;15.57;;;;;;;36.33;22.40;99857.13;4756441;29;97427;-69
2023/07/21 07:19:39;;;;;;;16.77;15.68;;;;;;;34.52;22.97;99850.97;4757813;29;96946;-69
2023/07/21 07:22:08;;;;;;;17.17;16.17;;;;;;;36.16;21.38;99844.16;4750450;29;98185;-69
2023/07/21 07:24:36;;;;;;;16.83;15.82;;;;;;;37.38;20.98;99846.41;4760474;29;99047;-69
2023/07/21 07:27:02;;;;;;;17.08;15.88;;;;;;;35.65;21.69;99842.66;4742770;29;97314;-69
2023/07/21 07:29:28;;;;;;;17.63;16.50;;;;;;;36.44;21.69;99838.06;4756234;29;97465;-69
2023/07/21 07:31:53;;;;;;;17.50;16.50;;;;;;;35.07;21.81;99843.03;4761347;29;98902;-68
2023/07/21 07:34:19;;;;;;;16.67;15.77;;;;;;;35.00;22.47;99840.34;4763171;29;98276;-68
2023/07/21 07:36:44;;;;;;;16.73;15.73;;;;;;;33.63;23.09;99841.72;4771249;29;97415;-68
2023/07/21 07:39:11;;;;;;;17.40;16.40;;;;;;;33.40;23.75;99839.47;4754915;29;98836;-69
2023/07/21 07:41:38;;;;;;;17.02;16.00;;;;;;;34.15;23.12;99846.16;4761169;29;99595;-68
2023/07/21 07:44:04;;;;;;;16.70;15.80;;;;;;;34.45;23.53;99835.50;4764074;29;98448;-67
2023/07/21 07:46:30;;;;;;;19.35;18.08;;;;;;;34.33;22.37;99842.69;4766450;29;97009;-67
2023/07/21 07:48:55;;;;;;;16.98;16.02;;;;;;;32.11;24.48;99840.59;4765872;29;97942;-68
2023/07/21 07:51:21;;;;;;;18.20;17.10;;;;;;;31.77;24.27;99845.03;4755873;29;98956;-67
2023/07/21 07:53:46;;;;;;;18.15;17.05;;;;;;;32.55;23.79;99844.69;4757856;29;98721;-67
2023/07/21 07:56:15;;;;;;;16.63;15.52;;;;;;;32.61;24.24;99833.00;4763657;29;96962;-72
2023/07/21 07:58:41;;;;;;;16.33;15.32;;;;;;;33.63;22.59;99828.13;4769571;29;96939;-73
2023/07/21 08:01:06;;;;;;;17.23;16.13;;;;;;;33.25;23.53;99831.53;4755979;29;99004;-82
2023/07/21 08:03:32;;;;;;;16.83;15.82;;;;;;;34.84;21.72;99832.72;4758171;29;98118;-83
2023/07/21 08:05:58;;;;;;;16.00;15.10;;;;;;;34.71;22.24;99828.22;4775302;29;96700;-84
2023/07/21 08:08:24;;;;;;;16.40;15.32;;;;;;;35.85;21.43;99836.97;4763802;29;97061;-85
2023/07/21 08:10:49;;;;;;;17.75;16.75;;;;;;;35.62;21.68;99829.47;4774620;29;98668;-84
2023/07/21 08:13:15;;;;;;;17.27;16.13;;;;;;;35.98;21.77;99830.47;4764525;29;98402;-83
2023/07/21 08:15:42;;;;;;;16.20;15.30;;;;;;;36.41;21.32;99822.13;4764182;29;97200;-84
2023/07/21 08:18:07;;;;;;;16.58;15.65;;;;;;;37.04;21.08;99818.00;4758013;29;98615;-86
2023/07/21 08:20:36;;;;;;;16.98;16.08;;;;;;;36.09;21.71;99826.19;4761036;29;97943;-87
2023/07/21 08:23:02;;;;;;;16.53;15.63;;;;;;;34.93;22.54;99818.56;4762620;29;98322;-86
2023/07/21 08:25:27;;;;;;;16.65;15.75;;;;;;;33.48;23.82;99825.63;4764319;29;97489;-87
2023/07/21 08:27:54;;;;;;;15.98;15.07;;;;;;;32.84;24.40;99824.44;4768020;29;97591;-86
2023/07/21 08:30:19;;;;;;;16.73;15.63;;;;;;;32.83;23.96;99812.72;4765471;29;99364;-85
2023/07/21 08:32:45;;;;;;;16.15;15.25;;;;;;;32.22;24.66;99819.13;4762573;29;98530;-85
2023/07/21 08:35:10;;;;;;;16.30;15.35;;;;;;;32.00;25.50;99821.16;4768163;29;96818;-88
2023/07/21 08:37:38;;;;;;;15.85;15.05;;;;;;;31.66;25.98;99819.31;4758822;29;97315;-91
2023/07/21 08:40:05;;;;;;;17.00;16.00;;;;;;;31.37;26.37;99816.88;4763831;29;98701;-68
2023/07/21 08:42:33;;;;;;;16.52;15.63;;;;;;;31.57;25.96;99810.50;4759176;29;98272;-69
2023/07/21 08:44:58;;;;;;;16.55;15.55;;;;;;;30.62;26.78;99814.56;4764091;29;96957;-69
2023/07/21 08:47:24;;;;;;;16.33;15.43;;;;;;;30.95;26.50;99808.63;4748069;29;96824;-68
2023/07/21 08:49:50;;;;;;;17.90;16.90;;;;;;;31.72;26.00;99812.25;4761367;29;98824;-69
2023/07/21 08:52:15;;;;;;;16.90;15.90;;;;;;;30.46;26.94;99812.16;4766471;29;98589;-68
2023/07/21 08:54:43;;;;;;;16.13;15.10;;;;;;;30.75;26.71;99816.56;4765445;29;97289;-68
2023/07/21 08:57:10;;;;;;;16.95;15.93;;;;;;;29.60;28.02;99817.34;4768168;29;97160;-69
2023/07/21 08:59:36;;;;;;;18.15;17.10;;;;;;;28.65;28.55;99808.00;4764936;29;98812;-69
2023/07/21 09:02:01;;;;;;;18.27;17.13;;;;;;;28.38;29.67;99814.72;4766850;29;98399;-70
2023/07/21 09:04:27;;;;;;;18.10;17.00;;;;;;;27.89;30.25;99811.50;4773087;29;97424;-70
2023/07/21 09:06:56;;;;;;;17.45;16.45;;;;;;;27.20;31.01;99808.50;4767283;29;97618;-69
2023/07/21 09:09:22;;;;;;;17.35;16.35;;;;;;;27.92;30.47;99811.13;4765405;29;98639;-69
2023/07/21 09:11:48;;;;;;;17.50;16.50;;;;;;;28.32;30.00;99801.13;4764420;29;99059;-68
2023/07/21 09:14:15;;;;;;;18.27;17.27;;;;;;;27.49;30.57;99810.66;4765503;29;97947;-69
2023/07/21 09:16:42;;;;;;;17.85;16.83;;;;;;;26.89;30.77;99809.22;4775293;29;97132;-68
2023/07/21 09:19:09;;;;;;;16.77;15.88;;;;;;;26.59;31.03;99814.28;4762557;29;98833;-69
2023/07/21 09:21:35;;;;;;;17.58;16.58;;;;;;;26.64;31.00;99805.69;4764215;29;98738;-68
2023/07/21 09:24:02;;;;;;;16.75;15.80;;;;;;;27.09;30.39;99798.94;4762531;29;97338;-68
2023/07/21 09:26:28;;;;;;;17.27;16.17;;;;;;;27.51;30.29;99801.34;4763914;29;97683;-69
2023/07/21 09:28:54;;;;;;;17.05;16.05;;;;;;;27.67;30.21;99786.97;4763827;29;98648;-67
2023/07/21 09:31:33;;;;;;;17.25;16.15;;;;;;;27.71;29.89;99790.16;4768053;29;98364;-68
2023/07/21 09:34:12;;;;;;;16.92;15.93;;;;;;;27.62;29.24;99786.66;4769798;29;97046;-68
2023/07/21 09:36:44;;;;;;;17.13;16.23;;;;;;;27.23;29.97;99782.09;4770109;29;96827;-69
2023/07/21 09:39:14;;;;;;;17.45;16.42;;;;;;;27.48;29.64;99776.59;4764126;29;98809;-68
2023/07/21 09:41:40;;;;;;;16.63;15.45;;;;;;;27.74;29.99;99771.75;4763903;29;98811;-68
2023/07/21 09:44:06;;;;;;;16.55;15.65;;;;;;;27.52;29.81;99772.56;4745297;29;98628;-68
2023/07/21 09:46:33;;;;;;;16.48;15.57;;;;;;;27.58;29.27;99776.38;4768956;29;96811;-68
2023/07/21 09:48:58;;;;;;;16.83;15.82;;;;;;;27.48;29.69;99769.34;4767509;29;98768;-68
2023/07/21 09:51:26;;;;;;;16.20;15.30;;;;;;;28.07;28.92;99768.06;4769224;29;97341;-68
2023/07/21 09:53:53;;;;;;;16.15;15.15;;;;;;;28.36;29.01;99767.34;4756909;29;97568;-69
2023/07/21 09:56:20;;;;;;;16.73;15.73;;;;;;;28.65;28.69;99770.19;4762480;29;97573;-68
2023/07/21 09:58:48;;;;;;;16.75;15.85;;;;;;;29.07;28.93;99771.47;4752927;29;98573;-69
2023/07/21 10:01:14;;;;;;;17.00;15.40;;;;;;;28.33;29.48;99760.47;4761246;29;98377;-69
2023/07/21 10:03:41;;;;;;;15.70;14.80;;;;;;;27.80;29.35;99762.16;4760555;29;97623;-69
2023/07/21 10:06:08;;;;;;;16.00;15.02;;;;;;;27.93;28.94;99759.72;4760289;29;96892;-69
2023/07/21 10:08:36;;;;;;;16.50;15.55;;;;;;;27.85;29.57;99764.34;4764874;29;98628;-69
2023/07/21 10:11:03;;;;;;;16.35;15.32;;;;;;;28.50;29.23;99765.75;4767500;29;98248;-69
2023/07/21 10:13:30;;;;;;;16.38;15.48;;;;;;;28.18;29.70;99752.28;4756691;29;97390;-68
2023/07/21 10:16:01;;;;;;;16.58;15.48;;;;;;;28.23;29.86;99751.78;4763435;29;97548;-69
2023/07/21 10:18:26;;;;;;;;;;;;;;;28.01;29.95;99749.91;4761956;29;99043;-69
2023/07/21 10:20:56;;;;;;;16.45;15.35;;;;;;;27.60;30.33;99752.81;4771401;29;98257;-69
2023/07/21 10:23:29;;;;;;;16.60;15.60;;;;;;;27.72;30.60;99759.47;4757837;29;97177;-68
2023/07/21 10:26:03;;;;;;;16.15;15.25;;;;;;;27.46;30.98;99751.69;4764162;29;98296;-68
2023/07/21 10:28:43;;;;;;;16.63;15.52;;;;;;;27.05;31.76;99755.34;4764672;29;98557;-69
2023/07/21 10:31:21;;;;;;;16.00;15.10;;;;;;;26.59;32.21;99755.06;4759005;29;98386;-69
2023/07/21 10:34:13;;;;;;;16.48;15.43;;;;;;;26.79;32.00;99746.63;4767730;29;97209;-69
2023/07/21 10:36:57;;;;;;;15.77;14.80;;;;;;;26.85;31.88;99752.19;4755704;29;96791;-69
2023/07/21 10:39:27;;;;;;;15.93;14.93;;;;;;;26.99;31.62;99747.09;4764894;29;98421;-68
2023/07/21 10:41:58;;;;;;;15.95;14.90;;;;;;;26.99;31.29;99742.53;4764579;29;98330;-68
2023/07/21 10:44:24;;;;;;;15.80;14.90;;;;;;;26.97;30.88;99744.59;4762126;29;96936;-68
2023/07/21 10:46:51;;;;;;;16.13;15.18;;;;;;;27.01;31.12;99742.38;4763704;29;96781;-69
2023/07/21 10:49:18;;;;;;;15.85;14.95;;;;;;;26.90;31.69;99742.75;4764674;29;98694;-68
2023/07/21 10:51:46;;;;;;;15.73;14.82;;;;;;;26.72;31.46;99740.25;4764165;29;98781;-68
2023/07/21 10:54:12;;;;;;;15.75;14.85;;;;;;;26.68;31.04;99731.69;4763811;29;96977;-69
2023/07/21 10:56:39;;;;;;;15.45;14.65;;;;;;;27.04;31.14;99734.78;4763607;29;96890;-68
2023/07/21 10:59:05;;;;;;;15.55;14.55;;;;;;;26.85;30.92;99736.03;4763313;29;98871;-68
2023/07/21 11:01:31;;;;;;;15.93;15.02;;;;;;;26.85;31.29;99727.97;4762684;29;98309;-68
2023/07/21 11:03:58;;;;;;;15.68;14.60;;;;;;;27.19;29.90;99729.56;4763054;29;96649;-68
2023/07/21 11:06:24;;;;;;;15.15;14.35;;;;;;;27.06;30.58;99711.22;4769677;29;96835;-68
2023/07/21 11:08:50;;;;;;;14.30;13.50;;;;;;;27.26;30.35;99722.47;4760874;29;98523;-68
2023/07/21 11:11:16;;;;;;;15.93;14.82;;;;;;;27.60;30.18;99718.59;4755824;29;98540;-69
2023/07/21 11:13:41;;;;;;;15.77;14.88;;;;;;;27.63;29.99;99714.72;4762032;29;97330;-69
2023/07/21 11:16:09;;;;;;;15.20;14.25;;;;;;;27.58;30.08;99700.91;4763991;29;96893;-69
2023/07/21 11:18:34;;;;;;;15.35;14.18;;;;;;;27.26;29.99;99718.94;4763157;29;98749;-69
2023/07/21 11:21:00;;;;;;;14.98;14.07;;;;;;;26.64;30.14;99709.63;4761041;29;98544;-69
2023/07/21 11:23:31;;;;;;;15.05;14.13;;;;;;;26.33;30.17;99703.28;4760955;29;96722;-69